sensor_id;sensor_type;location;lat;lon;timestamp;P1;durP1;ratioP1;P2;durP2;ratioP2
70455;SDS011;57916;51.996;5.180;2023-03-14T00:01:17;21.35;;;3.63;;
70455;SDS011;57916;51.996;5.180;2023-03-14T00:03:46;16.17;;;3.33;;
70455;SDS011;57916;51.996;5.180;2023-03-14T00:06:13;14.10;;;3.13;;
70455;SDS011;57916;51.996;5.180;2023-03-14T00:08:41;15.77;;;3.70;;
70455;SDS011;57916;51.996;5.180;2023-03-14T00:11:14;16.30;;;3.35;;
70455;SDS011;57916;51.996;5.180;2023-03-14T00:13:42;16.30;;;2.83;;
70455;SDS011;57916;51.996;5.180;2023-03-14T00:16:10;13.52;;;2.63;;
70455;SDS011;57916;51.996;5.180;2023-03-14T00:18:39;13.02;;;2.40;;
70455;SDS011;57916;51.996;5.180;2023-03-14T00:21:07;14.47;;;2.67;;
70455;SDS011;57916;51.996;5.180;2023-03-14T00:23:36;14.00;;;2.47;;
70455;SDS011;57916;51.996;5.180;2023-03-14T00:26:05;16.65;;;2.33;;
70455;SDS011;57916;51.996;5.180;2023-03-14T00:28:33;14.43;;;2.33;;
70455;SDS011;57916;51.996;5.180;2023-03-14T00:31:07;13.32;;;2.35;;
70455;SDS011;57916;51.996;5.180;2023-03-14T00:33:36;16.90;;;2.65;;
70455;SDS011;57916;51.996;5.180;2023-03-14T00:36:04;15.43;;;2.35;;
70455;SDS011;57916;51.996;5.180;2023-03-14T00:38:36;12.60;;;2.42;;
70455;SDS011;57916;51.996;5.180;2023-03-14T00:41:07;14.55;;;2.70;;
70455;SDS011;57916;51.996;5.180;2023-03-14T00:43:40;9.15;;;1.92;;
70455;SDS011;57916;51.996;5.180;2023-03-14T00:46:07;12.32;;;1.88;;
70455;SDS011;57916;51.996;5.180;2023-03-14T00:48:35;8.57;;;1.73;;
70455;SDS011;57916;51.996;5.180;2023-03-14T00:51:03;11.85;;;1.80;;
70455;SDS011;57916;51.996;5.180;2023-03-14T00:53:31;8.07;;;1.83;;
70455;SDS011;57916;51.996;5.180;2023-03-14T00:56:02;11.00;;;2.55;;
70455;SDS011;57916;51.996;5.180;2023-03-14T00:58:30;11.52;;;1.73;;
70455;SDS011;57916;51.996;5.180;2023-03-14T01:00:57;12.60;;;1.85;;
70455;SDS011;57916;51.996;5.180;2023-03-14T01:03:24;8.48;;;1.42;;
70455;SDS011;57916;51.996;5.180;2023-03-14T01:05:51;9.95;;;1.35;;
70455;SDS011;57916;51.996;5.180;2023-03-14T01:08:18;11.05;;;1.85;;
70455;SDS011;57916;51.996;5.180;2023-03-14T01:10:45;9.32;;;1.70;;
70455;SDS011;57916;51.996;5.180;2023-03-14T01:13:12;11.98;;;1.70;;
70455;SDS011;57916;51.996;5.180;2023-03-14T01:15:39;11.68;;;1.90;;
70455;SDS011;57916;51.996;5.180;2023-03-14T01:18:09;10.15;;;2.10;;
70455;SDS011;57916;51.996;5.180;2023-03-14T01:20:36;12.40;;;1.60;;
70455;SDS011;57916;51.996;5.180;2023-03-14T01:23:03;13.77;;;2.10;;
70455;SDS011;57916;51.996;5.180;2023-03-14T01:25:30;12.32;;;1.60;;
70455;SDS011;57916;51.996;5.180;2023-03-14T01:27:57;12.77;;;1.90;;
70455;SDS011;57916;51.996;5.180;2023-03-14T01:30:26;6.93;;;1.40;;
70455;SDS011;57916;51.996;5.180;2023-03-14T01:32:53;12.52;;;1.77;;
70455;SDS011;57916;51.996;5.180;2023-03-14T01:35:20;14.35;;;2.38;;
70455;SDS011;57916;51.996;5.180;2023-03-14T01:37:47;15.90;;;2.05;;
70455;SDS011;57916;51.996;5.180;2023-03-14T01:40:18;11.63;;;1.90;;
70455;SDS011;57916;51.996;5.180;2023-03-14T01:42:46;8.48;;;2.00;;
70455;SDS011;57916;51.996;5.180;2023-03-14T01:48:55;12.68;;;1.80;;
70455;SDS011;57916;51.996;5.180;2023-03-14T01:54:02;11.43;;;1.67;;
70455;SDS011;57916;51.996;5.180;2023-03-14T01:56:34;8.38;;;1.60;;
70455;SDS011;57916;51.996;5.180;2023-03-14T01:59:04;7.70;;;1.52;;
70455;SDS011;57916;51.996;5.180;2023-03-14T02:01:34;12.50;;;1.63;;
70455;SDS011;57916;51.996;5.180;2023-03-14T02:04:02;13.05;;;1.80;;
70455;SDS011;57916;51.996;5.180;2023-03-14T02:06:34;9.60;;;1.75;;
70455;SDS011;57916;51.996;5.180;2023-03-14T02:09:19;12.38;;;1.60;;
70455;SDS011;57916;51.996;5.180;2023-03-14T02:11:47;7.77;;;1.27;;
70455;SDS011;57916;51.996;5.180;2023-03-14T02:14:34;7.72;;;1.70;;
70455;SDS011;57916;51.996;5.180;2023-03-14T02:17:17;10.60;;;1.67;;
70455;SDS011;57916;51.996;5.180;2023-03-14T02:22:37;11.00;;;1.88;;
70455;SDS011;57916;51.996;5.180;2023-03-14T02:27:43;11.45;;;2.00;;
70455;SDS011;57916;51.996;5.180;2023-03-14T02:30:17;12.18;;;2.00;;
70455;SDS011;57916;51.996;5.180;2023-03-14T02:32:48;11.63;;;1.88;;
70455;SDS011;57916;51.996;5.180;2023-03-14T02:35:19;12.13;;;1.83;;
70455;SDS011;57916;51.996;5.180;2023-03-14T02:37:51;9.18;;;1.88;;
70455;SDS011;57916;51.996;5.180;2023-03-14T02:40:24;8.27;;;1.85;;
70455;SDS011;57916;51.996;5.180;2023-03-14T02:42:52;11.68;;;2.30;;
70455;SDS011;57916;51.996;5.180;2023-03-14T02:47:54;10.67;;;2.60;;
70455;SDS011;57916;51.996;5.180;2023-03-14T02:50:29;9.35;;;2.35;;
70455;SDS011;57916;51.996;5.180;2023-03-14T02:53:00;13.45;;;2.60;;
70455;SDS011;57916;51.996;5.180;2023-03-14T02:55:27;11.02;;;2.30;;
70455;SDS011;57916;51.996;5.180;2023-03-14T02:57:57;11.23;;;2.47;;
70455;SDS011;57916;51.996;5.180;2023-03-14T03:00:24;11.13;;;2.43;;
70455;SDS011;57916;51.996;5.180;2023-03-14T03:02:51;18.75;;;2.63;;
70455;SDS011;57916;51.996;5.180;2023-03-14T03:05:19;11.07;;;2.13;;
70455;SDS011;57916;51.996;5.180;2023-03-14T03:07:46;9.40;;;2.35;;
70455;SDS011;57916;51.996;5.180;2023-03-14T03:10:13;9.98;;;2.55;;
70455;SDS011;57916;51.996;5.180;2023-03-14T03:12:40;11.13;;;2.40;;
70455;SDS011;57916;51.996;5.180;2023-03-14T03:15:07;13.00;;;2.47;;
70455;SDS011;57916;51.996;5.180;2023-03-14T03:17:36;11.38;;;2.40;;
70455;SDS011;57916;51.996;5.180;2023-03-14T03:20:04;12.57;;;2.57;;
70455;SDS011;57916;51.996;5.180;2023-03-14T03:22:38;13.17;;;2.70;;
70455;SDS011;57916;51.996;5.180;2023-03-14T03:25:06;11.83;;;2.60;;
70455;SDS011;57916;51.996;5.180;2023-03-14T03:27:34;11.85;;;2.53;;
70455;SDS011;57916;51.996;5.180;2023-03-14T03:30:03;9.05;;;2.42;;
70455;SDS011;57916;51.996;5.180;2023-03-14T03:32:32;11.30;;;2.20;;
70455;SDS011;57916;51.996;5.180;2023-03-14T03:34:59;10.45;;;2.22;;
70455;SDS011;57916;51.996;5.180;2023-03-14T03:37:29;11.52;;;2.20;;
70455;SDS011;57916;51.996;5.180;2023-03-14T03:39:58;12.90;;;2.33;;
70455;SDS011;57916;51.996;5.180;2023-03-14T03:42:26;7.87;;;2.20;;
70455;SDS011;57916;51.996;5.180;2023-03-14T03:44:53;10.93;;;2.03;;
70455;SDS011;57916;51.996;5.180;2023-03-14T03:47:22;9.05;;;1.95;;
70455;SDS011;57916;51.996;5.180;2023-03-14T03:49:48;11.35;;;1.67;;
70455;SDS011;57916;51.996;5.180;2023-03-14T03:52:15;9.00;;;1.92;;
70455;SDS011;57916;51.996;5.180;2023-03-14T03:54:43;10.23;;;2.10;;
70455;SDS011;57916;51.996;5.180;2023-03-14T03:57:09;10.10;;;1.70;;
70455;SDS011;57916;51.996;5.180;2023-03-14T03:59:36;8.60;;;1.70;;
70455;SDS011;57916;51.996;5.180;2023-03-14T04:02:07;8.43;;;1.70;;
70455;SDS011;57916;51.996;5.180;2023-03-14T04:04:34;9.93;;;2.33;;
70455;SDS011;57916;51.996;5.180;2023-03-14T04:07:02;11.95;;;2.10;;
70455;SDS011;57916;51.996;5.180;2023-03-14T04:09:30;6.22;;;1.77;;
70455;SDS011;57916;51.996;5.180;2023-03-14T04:12:08;10.90;;;2.27;;
70455;SDS011;57916;51.996;5.180;2023-03-14T04:15:09;10.03;;;2.10;;
70455;SDS011;57916;51.996;5.180;2023-03-14T04:17:40;6.20;;;1.80;;
70455;SDS011;57916;51.996;5.180;2023-03-14T04:20:08;16.00;;;2.45;;
70455;SDS011;57916;51.996;5.180;2023-03-14T04:22:39;7.60;;;1.95;;
70455;SDS011;57916;51.996;5.180;2023-03-14T04:25:09;13.00;;;2.30;;
70455;SDS011;57916;51.996;5.180;2023-03-14T04:27:41;9.63;;;2.25;;
70455;SDS011;57916;51.996;5.180;2023-03-14T04:30:16;10.65;;;2.00;;
70455;SDS011;57916;51.996;5.180;2023-03-14T04:32:49;10.43;;;2.17;;
70455;SDS011;57916;51.996;5.180;2023-03-14T04:35:18;12.25;;;2.30;;
70455;SDS011;57916;51.996;5.180;2023-03-14T04:37:45;11.75;;;2.35;;
70455;SDS011;57916;51.996;5.180;2023-03-14T04:40:16;8.52;;;1.80;;
70455;SDS011;57916;51.996;5.180;2023-03-14T04:42:44;7.10;;;1.70;;
70455;SDS011;57916;51.996;5.180;2023-03-14T04:45:12;8.73;;;2.05;;
70455;SDS011;57916;51.996;5.180;2023-03-14T04:47:40;6.22;;;1.90;;
70455;SDS011;57916;51.996;5.180;2023-03-14T04:50:11;8.65;;;1.77;;
70455;SDS011;57916;51.996;5.180;2023-03-14T04:52:38;7.43;;;2.10;;
70455;SDS011;57916;51.996;5.180;2023-03-14T04:55:05;6.88;;;1.65;;
70455;SDS011;57916;51.996;5.180;2023-03-14T04:57:32;10.23;;;2.00;;
70455;SDS011;57916;51.996;5.180;2023-03-14T04:59:59;12.25;;;1.95;;
70455;SDS011;57916;51.996;5.180;2023-03-14T05:02:49;6.80;;;1.60;;
70455;SDS011;57916;51.996;5.180;2023-03-14T05:05:33;6.47;;;1.85;;
70455;SDS011;57916;51.996;5.180;2023-03-14T05:08:13;8.27;;;2.03;;
70455;SDS011;57916;51.996;5.180;2023-03-14T05:10:54;8.07;;;2.03;;
70455;SDS011;57916;51.996;5.180;2023-03-14T05:13:41;6.38;;;2.08;;
70455;SDS011;57916;51.996;5.180;2023-03-14T05:16:32;9.23;;;2.28;;
70455;SDS011;57916;51.996;5.180;2023-03-14T05:19:20;8.40;;;2.47;;
70455;SDS011;57916;51.996;5.180;2023-03-14T05:22:25;9.63;;;2.90;;
70455;SDS011;57916;51.996;5.180;2023-03-14T05:25:13;6.95;;;3.03;;
70455;SDS011;57916;51.996;5.180;2023-03-14T05:28:10;10.73;;;3.28;;
70455;SDS011;57916;51.996;5.180;2023-03-14T05:30:48;5.47;;;3.35;;
70455;SDS011;57916;51.996;5.180;2023-03-14T05:33:38;6.85;;;3.60;;
70455;SDS011;57916;51.996;5.180;2023-03-14T05:36:20;9.47;;;3.97;;
70455;SDS011;57916;51.996;5.180;2023-03-14T05:39:10;8.93;;;3.97;;
70455;SDS011;57916;51.996;5.180;2023-03-14T05:41:46;12.30;;;4.30;;
70455;SDS011;57916;51.996;5.180;2023-03-14T05:44:16;11.63;;;4.93;;
70455;SDS011;57916;51.996;5.180;2023-03-14T05:47:18;11.68;;;4.80;;
70455;SDS011;57916;51.996;5.180;2023-03-14T05:50:08;11.50;;;5.18;;
70455;SDS011;57916;51.996;5.180;2023-03-14T05:53:00;9.63;;;5.70;;
70455;SDS011;57916;51.996;5.180;2023-03-14T05:55:54;10.75;;;5.47;;
70455;SDS011;57916;51.996;5.180;2023-03-14T05:58:50;12.43;;;5.38;;
70455;SDS011;57916;51.996;5.180;2023-03-14T06:01:36;12.32;;;5.45;;
70455;SDS011;57916;51.996;5.180;2023-03-14T06:04:12;16.40;;;6.25;;
70455;SDS011;57916;51.996;5.180;2023-03-14T06:06:40;14.27;;;6.15;;
70455;SDS011;57916;51.996;5.180;2023-03-14T06:09:09;11.52;;;6.22;;
70455;SDS011;57916;51.996;5.180;2023-03-14T06:11:38;13.27;;;6.93;;
70455;SDS011;57916;51.996;5.180;2023-03-14T06:14:06;15.73;;;6.80;;
70455;SDS011;57916;51.996;5.180;2023-03-14T06:16:33;13.77;;;7.20;;
70455;SDS011;57916;51.996;5.180;2023-03-14T06:19:00;10.07;;;6.60;;
70455;SDS011;57916;51.996;5.180;2023-03-14T06:21:28;16.45;;;7.43;;
70455;SDS011;57916;51.996;5.180;2023-03-14T06:23:56;11.70;;;7.18;;
70455;SDS011;57916;51.996;5.180;2023-03-14T06:26:24;13.82;;;7.25;;
70455;SDS011;57916;51.996;5.180;2023-03-14T06:28:51;13.87;;;5.80;;
70455;SDS011;57916;51.996;5.180;2023-03-14T06:31:20;5.00;;;1.70;;
70455;SDS011;57916;51.996;5.180;2023-03-14T06:33:52;5.60;;;1.40;;
70455;SDS011;57916;51.996;5.180;2023-03-14T06:36:20;6.75;;;1.00;;
70455;SDS011;57916;51.996;5.180;2023-03-14T06:38:48;6.07;;;0.90;;
70455;SDS011;57916;51.996;5.180;2023-03-14T06:41:15;2.08;;;0.70;;
70455;SDS011;57916;51.996;5.180;2023-03-14T06:43:44;3.57;;;0.90;;
70455;SDS011;57916;51.996;5.180;2023-03-14T06:46:12;3.97;;;1.20;;
70455;SDS011;57916;51.996;5.180;2023-03-14T06:48:41;1.50;;;0.70;;
70455;SDS011;57916;51.996;5.180;2023-03-14T06:51:08;2.42;;;0.60;;
70455;SDS011;57916;51.996;5.180;2023-03-14T06:53:35;3.03;;;0.90;;
70455;SDS011;57916;51.996;5.180;2023-03-14T06:56:03;6.60;;;1.20;;
70455;SDS011;57916;51.996;5.180;2023-03-14T06:58:31;2.63;;;1.00;;
70455;SDS011;57916;51.996;5.180;2023-03-14T07:01:00;2.33;;;0.90;;
70455;SDS011;57916;51.996;5.180;2023-03-14T07:03:32;10.60;;;1.10;;
70455;SDS011;57916;51.996;5.180;2023-03-14T07:05:59;7.50;;;1.40;;
70455;SDS011;57916;51.996;5.180;2023-03-14T07:08:26;6.97;;;1.27;;
70455;SDS011;57916;51.996;5.180;2023-03-14T07:10:55;6.55;;;1.00;;
70455;SDS011;57916;51.996;5.180;2023-03-14T07:13:23;1.55;;;1.10;;
70455;SDS011;57916;51.996;5.180;2023-03-14T07:15:59;3.15;;;1.35;;
70455;SDS011;57916;51.996;5.180;2023-03-14T07:18:26;2.08;;;1.10;;
70455;SDS011;57916;51.996;5.180;2023-03-14T07:20:54;3.60;;;1.30;;
70455;SDS011;57916;51.996;5.180;2023-03-14T07:23:21;2.97;;;1.17;;
70455;SDS011;57916;51.996;5.180;2023-03-14T07:25:51;4.28;;;1.40;;
70455;SDS011;57916;51.996;5.180;2023-03-14T07:28:21;3.00;;;1.38;;
70455;SDS011;57916;51.996;5.180;2023-03-14T07:30:55;5.22;;;1.50;;
70455;SDS011;57916;51.996;5.180;2023-03-14T07:33:27;6.35;;;1.70;;
70455;SDS011;57916;51.996;5.180;2023-03-14T07:35:55;8.10;;;1.70;;
70455;SDS011;57916;51.996;5.180;2023-03-14T07:38:22;3.80;;;1.70;;
70455;SDS011;57916;51.996;5.180;2023-03-14T07:41:09;4.93;;;1.67;;
70455;SDS011;57916;51.996;5.180;2023-03-14T07:43:42;3.28;;;1.60;;
70455;SDS011;57916;51.996;5.180;2023-03-14T07:46:09;7.80;;;1.50;;
70455;SDS011;57916;51.996;5.180;2023-03-14T07:48:36;7.30;;;1.53;;
70455;SDS011;57916;51.996;5.180;2023-03-14T07:51:03;3.70;;;1.50;;
70455;SDS011;57916;51.996;5.180;2023-03-14T07:53:30;6.10;;;1.10;;
70455;SDS011;57916;51.996;5.180;2023-03-14T07:55:57;6.53;;;1.10;;
70455;SDS011;57916;51.996;5.180;2023-03-14T07:58:24;4.93;;;1.27;;
70455;SDS011;57916;51.996;5.180;2023-03-14T08:00:51;2.97;;;0.80;;
70455;SDS011;57916;51.996;5.180;2023-03-14T08:03:18;5.97;;;1.10;;
70455;SDS011;57916;51.996;5.180;2023-03-14T08:05:49;5.15;;;1.13;;
70455;SDS011;57916;51.996;5.180;2023-03-14T08:08:16;4.43;;;1.00;;
70455;SDS011;57916;51.996;5.180;2023-03-14T08:10:44;6.22;;;1.27;;
70455;SDS011;57916;51.996;5.180;2023-03-14T08:13:12;3.20;;;1.00;;
70455;SDS011;57916;51.996;5.180;2023-03-14T08:15:39;6.82;;;1.20;;
70455;SDS011;57916;51.996;5.180;2023-03-14T08:18:06;5.63;;;0.98;;
70455;SDS011;57916;51.996;5.180;2023-03-14T08:20:33;5.28;;;0.90;;
70455;SDS011;57916;51.996;5.180;2023-03-14T08:23:02;1.05;;;0.32;;
70455;SDS011;57916;51.996;5.180;2023-03-14T08:25:29;1.08;;;0.30;;
70455;SDS011;57916;51.996;5.180;2023-03-14T08:27:57;2.58;;;0.47;;
70455;SDS011;57916;51.996;5.180;2023-03-14T08:30:23;3.67;;;0.60;;
70455;SDS011;57916;51.996;5.180;2023-03-14T08:32:51;2.65;;;0.40;;
70455;SDS011;57916;51.996;5.180;2023-03-14T08:35:18;2.57;;;0.50;;
70455;SDS011;57916;51.996;5.180;2023-03-14T08:37:47;4.43;;;0.52;;
70455;SDS011;57916;51.996;5.180;2023-03-14T08:40:13;3.50;;;0.43;;
70455;SDS011;57916;51.996;5.180;2023-03-14T08:42:41;2.38;;;0.57;;
70455;SDS011;57916;51.996;5.180;2023-03-14T08:45:10;1.60;;;0.47;;
70455;SDS011;57916;51.996;5.180;2023-03-14T08:47:38;4.15;;;0.65;;
70455;SDS011;57916;51.996;5.180;2023-03-14T08:50:06;3.60;;;0.50;;
70455;SDS011;57916;51.996;5.180;2023-03-14T08:52:33;0.90;;;0.30;;
70455;SDS011;57916;51.996;5.180;2023-03-14T08:55:00;1.55;;;0.40;;
70455;SDS011;57916;51.996;5.180;2023-03-14T08:57:27;2.00;;;0.50;;
70455;SDS011;57916;51.996;5.180;2023-03-14T08:59:54;1.35;;;0.35;;
70455;SDS011;57916;51.996;5.180;2023-03-14T09:02:23;7.13;;;0.52;;
70455;SDS011;57916;51.996;5.180;2023-03-14T09:04:51;1.75;;;0.47;;
70455;SDS011;57916;51.996;5.180;2023-03-14T09:07:19;4.32;;;0.40;;
70455;SDS011;57916;51.996;5.180;2023-03-14T09:09:46;3.65;;;0.85;;
70455;SDS011;57916;51.996;5.180;2023-03-14T09:12:13;4.68;;;0.82;;
70455;SDS011;57916;51.996;5.180;2023-03-14T09:14:40;4.60;;;0.73;;
70455;SDS011;57916;51.996;5.180;2023-03-14T09:17:06;3.65;;;0.82;;
70455;SDS011;57916;51.996;5.180;2023-03-14T09:19:34;6.45;;;0.90;;
70455;SDS011;57916;51.996;5.180;2023-03-14T09:22:01;5.63;;;0.85;;
70455;SDS011;57916;51.996;5.180;2023-03-14T09:24:29;5.30;;;0.90;;
70455;SDS011;57916;51.996;5.180;2023-03-14T09:26:56;9.75;;;1.25;;
70455;SDS011;57916;51.996;5.180;2023-03-14T09:29:23;9.55;;;1.40;;
70455;SDS011;57916;51.996;5.180;2023-03-14T09:31:50;9.73;;;1.30;;
70455;SDS011;57916;51.996;5.180;2023-03-14T09:34:18;10.00;;;1.48;;
70455;SDS011;57916;51.996;5.180;2023-03-14T09:36:45;5.60;;;1.15;;
70455;SDS011;57916;51.996;5.180;2023-03-14T09:39:12;11.43;;;1.98;;
70455;SDS011;57916;51.996;5.180;2023-03-14T09:41:39;12.32;;;1.77;;
70455;SDS011;57916;51.996;5.180;2023-03-14T09:46:44;10.10;;;1.23;;
70455;SDS011;57916;51.996;5.180;2023-03-14T09:49:37;12.73;;;2.10;;
70455;SDS011;57916;51.996;5.180;2023-03-14T09:52:13;12.77;;;1.63;;
70455;SDS011;57916;51.996;5.180;2023-03-14T09:54:53;14.98;;;1.88;;
70455;SDS011;57916;51.996;5.180;2023-03-14T09:57:26;14.75;;;2.50;;
70455;SDS011;57916;51.996;5.180;2023-03-14T09:59:58;14.30;;;1.57;;
70455;SDS011;57916;51.996;5.180;2023-03-14T10:02:41;13.95;;;1.83;;
70455;SDS011;57916;51.996;5.180;2023-03-14T10:05:16;12.10;;;1.67;;
70455;SDS011;57916;51.996;5.180;2023-03-14T10:07:44;12.90;;;1.77;;
70455;SDS011;57916;51.996;5.180;2023-03-14T10:10:19;9.38;;;1.70;;
70455;SDS011;57916;51.996;5.180;2023-03-14T10:12:54;12.68;;;2.03;;
70455;SDS011;57916;51.996;5.180;2023-03-14T10:15:28;14.13;;;1.75;;
70455;SDS011;57916;51.996;5.180;2023-03-14T10:17:59;6.93;;;1.50;;
70455;SDS011;57916;51.996;5.180;2023-03-14T10:20:37;11.82;;;1.30;;
70455;SDS011;57916;51.996;5.180;2023-03-14T10:25:39;4.97;;;1.10;;
70455;SDS011;57916;51.996;5.180;2023-03-14T10:28:25;11.57;;;1.45;;
70455;SDS011;57916;51.996;5.180;2023-03-14T10:30:54;10.68;;;1.48;;
70455;SDS011;57916;51.996;5.180;2023-03-14T10:35:55;17.75;;;2.60;;
70455;SDS011;57916;51.996;5.180;2023-03-14T10:38:31;16.38;;;2.20;;
70455;SDS011;57916;51.996;5.180;2023-03-14T10:41:03;16.60;;;1.88;;
70455;SDS011;57916;51.996;5.180;2023-03-14T10:43:58;13.88;;;2.17;;
70455;SDS011;57916;51.996;5.180;2023-03-14T10:46:28;13.98;;;1.90;;
70455;SDS011;57916;51.996;5.180;2023-03-14T10:49:27;13.27;;;1.90;;
70455;SDS011;57916;51.996;5.180;2023-03-14T10:52:03;23.15;;;2.55;;
70455;SDS011;57916;51.996;5.180;2023-03-14T10:55:11;14.82;;;2.15;;
70455;SDS011;57916;51.996;5.180;2023-03-14T10:57:39;23.73;;;2.88;;
70455;SDS011;57916;51.996;5.180;2023-03-14T11:00:18;19.10;;;2.47;;
70455;SDS011;57916;51.996;5.180;2023-03-14T11:03:03;21.67;;;2.97;;
70455;SDS011;57916;51.996;5.180;2023-03-14T11:05:38;14.27;;;1.55;;
70455;SDS011;57916;51.996;5.180;2023-03-14T11:08:09;12.20;;;2.03;;
70455;SDS011;57916;51.996;5.180;2023-03-14T11:10:46;16.65;;;2.13;;
70455;SDS011;57916;51.996;5.180;2023-03-14T11:16:06;19.20;;;2.63;;
70455;SDS011;57916;51.996;5.180;2023-03-14T11:31:57;18.23;;;2.20;;
70455;SDS011;57916;51.996;5.180;2023-03-14T11:34:29;22.05;;;2.50;;
70455;SDS011;57916;51.996;5.180;2023-03-14T11:37:06;15.95;;;3.38;;
70455;SDS011;57916;51.996;5.180;2023-03-14T11:39:41;27.02;;;2.90;;
70455;SDS011;57916;51.996;5.180;2023-03-14T11:42:15;20.35;;;2.60;;
70455;SDS011;57916;51.996;5.180;2023-03-14T11:44:44;21.42;;;2.15;;
70455;SDS011;57916;51.996;5.180;2023-03-14T11:47:25;14.52;;;2.38;;
70455;SDS011;57916;51.996;5.180;2023-03-14T11:50:21;14.18;;;2.20;;
70455;SDS011;57916;51.996;5.180;2023-03-14T11:52:52;14.07;;;2.42;;
70455;SDS011;57916;51.996;5.180;2023-03-14T11:55:34;9.38;;;1.75;;
70455;SDS011;57916;51.996;5.180;2023-03-14T11:58:24;13.98;;;1.92;;
70455;SDS011;57916;51.996;5.180;2023-03-14T12:00:53;12.07;;;1.80;;
70455;SDS011;57916;51.996;5.180;2023-03-14T12:06:21;11.00;;;1.65;;
70455;SDS011;57916;51.996;5.180;2023-03-14T12:08:55;8.77;;;1.58;;
70455;SDS011;57916;51.996;5.180;2023-03-14T12:13:54;9.32;;;1.80;;
70455;SDS011;57916;51.996;5.180;2023-03-14T12:19:14;7.85;;;1.80;;
70455;SDS011;57916;51.996;5.180;2023-03-14T12:21:49;9.85;;;2.00;;
70455;SDS011;57916;51.996;5.180;2023-03-14T12:24:20;10.77;;;1.70;;
70455;SDS011;57916;51.996;5.180;2023-03-14T12:27:01;10.65;;;1.58;;
70455;SDS011;57916;51.996;5.180;2023-03-14T12:29:29;10.88;;;1.73;;
70455;SDS011;57916;51.996;5.180;2023-03-14T12:34:31;10.77;;;1.52;;
70455;SDS011;57916;51.996;5.180;2023-03-14T12:37:05;6.68;;;1.30;;
70455;SDS011;57916;51.996;5.180;2023-03-14T12:44:40;9.00;;;1.48;;
70455;SDS011;57916;51.996;5.180;2023-03-14T12:49:45;11.13;;;1.63;;
70455;SDS011;57916;51.996;5.180;2023-03-14T12:52:22;8.15;;;1.40;;
70455;SDS011;57916;51.996;5.180;2023-03-14T12:55:13;8.30;;;1.30;;
70455;SDS011;57916;51.996;5.180;2023-03-14T12:58:35;10.18;;;1.60;;
70455;SDS011;57916;51.996;5.180;2023-03-14T13:00:50;7.50;;;1.40;;
70455;SDS011;57916;51.996;5.180;2023-03-14T13:03:24;9.65;;;1.52;;
70455;SDS011;57916;51.996;5.180;2023-03-14T13:05:58;9.63;;;1.50;;
70455;SDS011;57916;51.996;5.180;2023-03-14T13:11:18;5.80;;;1.50;;
70455;SDS011;57916;51.996;5.180;2023-03-14T13:13:49;8.30;;;1.10;;
70455;SDS011;57916;51.996;5.180;2023-03-14T13:16:23;7.88;;;1.45;;
70455;SDS011;57916;51.996;5.180;2023-03-14T13:18:59;6.47;;;0.88;;
70455;SDS011;57916;51.996;5.180;2023-03-14T13:21:34;3.35;;;1.10;;
70455;SDS011;57916;51.996;5.180;2023-03-14T13:24:06;6.20;;;0.98;;
70455;SDS011;57916;51.996;5.180;2023-03-14T13:26:46;8.15;;;1.20;;
70455;SDS011;57916;51.996;5.180;2023-03-14T13:31:51;5.95;;;1.45;;
70455;SDS011;57916;51.996;5.180;2023-03-14T13:34:20;5.85;;;1.23;;
70455;SDS011;57916;51.996;5.180;2023-03-14T13:36:47;10.33;;;1.47;;
70455;SDS011;57916;51.996;5.180;2023-03-14T13:39:19;9.15;;;1.15;;
70455;SDS011;57916;51.996;5.180;2023-03-14T13:41:51;8.73;;;1.13;;
70455;SDS011;57916;51.996;5.180;2023-03-14T13:44:33;5.20;;;1.00;;
70455;SDS011;57916;51.996;5.180;2023-03-14T13:47:02;6.43;;;1.20;;
70455;SDS011;57916;51.996;5.180;2023-03-14T13:49:31;6.82;;;1.40;;
70455;SDS011;57916;51.996;5.180;2023-03-14T13:52:02;9.03;;;1.50;;
70455;SDS011;57916;51.996;5.180;2023-03-14T13:54:31;7.35;;;1.33;;
70455;SDS011;57916;51.996;5.180;2023-03-14T13:56:59;15.38;;;2.03;;
70455;SDS011;57916;51.996;5.180;2023-03-14T13:59:30;6.75;;;1.30;;
70455;SDS011;57916;51.996;5.180;2023-03-14T14:01:59;8.07;;;1.47;;
70455;SDS011;57916;51.996;5.180;2023-03-14T14:04:32;5.43;;;1.40;;
70455;SDS011;57916;51.996;5.180;2023-03-14T14:07:06;8.60;;;1.30;;
70455;SDS011;57916;51.996;5.180;2023-03-14T14:09:38;6.70;;;1.13;;
70455;SDS011;57916;51.996;5.180;2023-03-14T14:17:17;9.40;;;1.48;;
70455;SDS011;57916;51.996;5.180;2023-03-14T14:19:48;6.43;;;1.17;;
70455;SDS011;57916;51.996;5.180;2023-03-14T14:22:15;8.48;;;1.20;;
70455;SDS011;57916;51.996;5.180;2023-03-14T14:24:43;8.20;;;1.50;;
70455;SDS011;57916;51.996;5.180;2023-03-14T14:27:14;10.05;;;1.63;;
70455;SDS011;57916;51.996;5.180;2023-03-14T14:29:44;8.73;;;1.23;;
70455;SDS011;57916;51.996;5.180;2023-03-14T14:32:22;8.05;;;1.30;;
70455;SDS011;57916;51.996;5.180;2023-03-14T14:39:57;7.75;;;0.90;;
70455;SDS011;57916;51.996;5.180;2023-03-14T14:42:27;5.78;;;1.00;;
70455;SDS011;57916;51.996;5.180;2023-03-14T14:44:59;8.95;;;1.30;;
70455;SDS011;57916;51.996;5.180;2023-03-14T14:47:28;7.55;;;1.15;;
70455;SDS011;57916;51.996;5.180;2023-03-14T14:49:58;4.45;;;1.00;;
70455;SDS011;57916;51.996;5.180;2023-03-14T14:55:00;11.90;;;1.33;;
70455;SDS011;57916;51.996;5.180;2023-03-14T14:57:28;7.63;;;1.20;;
70455;SDS011;57916;51.996;5.180;2023-03-14T15:00:04;7.15;;;1.40;;
70455;SDS011;57916;51.996;5.180;2023-03-14T15:02:40;7.97;;;1.23;;
70455;SDS011;57916;51.996;5.180;2023-03-14T15:05:16;12.23;;;1.38;;
70455;SDS011;57916;51.996;5.180;2023-03-14T15:07:44;8.15;;;1.30;;
70455;SDS011;57916;51.996;5.180;2023-03-14T15:10:12;7.10;;;1.02;;
70455;SDS011;57916;51.996;5.180;2023-03-14T15:12:40;10.63;;;1.38;;
70455;SDS011;57916;51.996;5.180;2023-03-14T15:15:07;5.03;;;1.08;;
70455;SDS011;57916;51.996;5.180;2023-03-14T15:17:35;7.85;;;1.13;;
70455;SDS011;57916;51.996;5.180;2023-03-14T15:20:04;7.53;;;0.88;;
70455;SDS011;57916;51.996;5.180;2023-03-14T15:22:32;6.85;;;1.20;;
70455;SDS011;57916;51.996;5.180;2023-03-14T15:24:59;6.07;;;1.30;;
70455;SDS011;57916;51.996;5.180;2023-03-14T15:27:26;5.18;;;0.90;;
70455;SDS011;57916;51.996;5.180;2023-03-14T15:29:56;7.28;;;1.35;;
70455;SDS011;57916;51.996;5.180;2023-03-14T15:32:23;6.78;;;1.20;;
70455;SDS011;57916;51.996;5.180;2023-03-14T15:34:50;9.45;;;1.55;;
70455;SDS011;57916;51.996;5.180;2023-03-14T15:37:17;7.63;;;1.10;;
70455;SDS011;57916;51.996;5.180;2023-03-14T15:39:44;7.43;;;1.08;;
70455;SDS011;57916;51.996;5.180;2023-03-14T15:42:11;7.65;;;1.25;;
70455;SDS011;57916;51.996;5.180;2023-03-14T15:44:38;8.95;;;1.30;;
70455;SDS011;57916;51.996;5.180;2023-03-14T15:47:05;9.15;;;1.20;;
70455;SDS011;57916;51.996;5.180;2023-03-14T15:49:33;6.82;;;1.10;;
70455;SDS011;57916;51.996;5.180;2023-03-14T15:52:01;10.93;;;1.57;;
70455;SDS011;57916;51.996;5.180;2023-03-14T15:54:28;7.03;;;1.00;;
70455;SDS011;57916;51.996;5.180;2023-03-14T15:56:55;6.93;;;1.20;;
70455;SDS011;57916;51.996;5.180;2023-03-14T15:59:23;11.25;;;1.27;;
70455;SDS011;57916;51.996;5.180;2023-03-14T16:01:50;12.25;;;1.40;;
70455;SDS011;57916;51.996;5.180;2023-03-14T16:04:17;9.65;;;1.25;;
70455;SDS011;57916;51.996;5.180;2023-03-14T16:06:44;6.15;;;1.25;;
70455;SDS011;57916;51.996;5.180;2023-03-14T16:09:11;15.43;;;1.52;;
70455;SDS011;57916;51.996;5.180;2023-03-14T16:11:39;10.60;;;1.13;;
70455;SDS011;57916;51.996;5.180;2023-03-14T16:14:06;8.35;;;1.40;;
70455;SDS011;57916;51.996;5.180;2023-03-14T16:16:33;9.50;;;1.50;;
70455;SDS011;57916;51.996;5.180;2023-03-14T16:19:00;8.23;;;1.60;;
70455;SDS011;57916;51.996;5.180;2023-03-14T16:21:28;11.40;;;1.13;;